sensor_id;sensor_type;location;lat;lon;timestamp;pressure;altitude;pressure_sealevel;temperature;humidity
33697;BME280;20031;43.416;23.232;2022-10-22T00:02:24;100796.94;;;8.52;77.80
33697;BME280;20031;43.416;23.232;2022-10-22T00:04:52;100793.38;;;8.32;77.39
33697;BME280;20031;43.416;23.232;2022-10-22T00:07:18;100793.25;;;8.13;77.25
33697;BME280;20031;43.416;23.232;2022-10-22T00:09:45;100794.47;;;7.99;77.11
33697;BME280;20031;43.416;23.232;2022-10-22T00:12:12;100797.50;;;7.83;76.87
33697;BME280;20031;43.416;23.232;2022-10-22T00:14:38;100787.97;;;7.73;76.75
33697;BME280;20031;43.416;23.232;2022-10-22T00:17:03;100800.59;;;7.66;77.00
33697;BME280;20031;43.416;23.232;2022-10-22T00:19:29;100792.97;;;7.54;77.18
33697;BME280;20031;43.416;23.232;2022-10-22T00:21:54;100784.63;;;7.51;77.62
33697;BME280;20031;43.416;23.232;2022-10-22T00:24:20;100789.34;;;7.46;77.12
33697;BME280;20031;43.416;23.232;2022-10-22T00:26:46;100791.22;;;7.44;78.10
33697;BME280;20031;43.416;23.232;2022-10-22T00:29:12;100778.63;;;7.39;77.85
33697;BME280;20031;43.416;23.232;2022-10-22T00:31:37;100774.41;;;7.38;78.14
33697;BME280;20031;43.416;23.232;2022-10-22T00:34:03;100776.88;;;7.40;78.22
33697;BME280;20031;43.416;23.232;2022-10-22T00:36:28;100778.63;;;7.39;78.08
33697;BME280;20031;43.416;23.232;2022-10-22T00:38:54;100780.63;;;7.36;78.14
33697;BME280;20031;43.416;23.232;2022-10-22T00:41:19;100769.22;;;7.38;78.33
33697;BME280;20031;43.416;23.232;2022-10-22T00:44:00;100762.25;;;7.39;78.42
33697;BME280;20031;43.416;23.232;2022-10-22T00:46:26;100763.44;;;7.35;78.57
33697;BME280;20031;43.416;23.232;2022-10-22T00:48:54;100760.16;;;7.33;78.58
33697;BME280;20031;43.416;23.232;2022-10-22T00:51:21;100756.88;;;7.31;78.53
33697;BME280;20031;43.416;23.232;2022-10-22T00:53:51;100761.56;;;7.26;78.58
33697;BME280;20031;43.416;23.232;2022-10-22T00:56:21;100761.81;;;7.23;78.45
33697;BME280;20031;43.416;23.232;2022-10-22T00:58:52;100758.41;;;7.22;78.88
33697;BME280;20031;43.416;23.232;2022-10-22T01:01:23;100760.88;;;7.24;78.78
33697;BME280;20031;43.416;23.232;2022-10-22T01:03:49;100764.41;;;7.23;78.70
33697;BME280;20031;43.416;23.232;2022-10-22T01:06:21;100759.00;;;7.26;78.97
33697;BME280;20031;43.416;23.232;2022-10-22T01:12:06;100752.00;;;7.37;79.13
33697;BME280;20031;43.416;23.232;2022-10-22T01:14:44;100763.66;;;7.43;79.21
33697;BME280;20031;43.416;23.232;2022-10-22T01:17:35;100746.34;;;7.43;78.85
33697;BME280;20031;43.416;23.232;2022-10-22T01:26:02;100752.13;;;7.47;78.65
33697;BME280;20031;43.416;23.232;2022-10-22T01:31:12;100747.88;;;7.46;78.48
33697;BME280;20031;43.416;23.232;2022-10-22T01:33:41;100740.91;;;7.46;78.25
33697;BME280;20031;43.416;23.232;2022-10-22T01:36:09;100742.34;;;7.39;77.99
33697;BME280;20031;43.416;23.232;2022-10-22T01:38:37;100732.59;;;7.32;78.49
33697;BME280;20031;43.416;23.232;2022-10-22T01:41:04;100734.03;;;7.25;77.96
33697;BME280;20031;43.416;23.232;2022-10-22T01:43:30;100734.38;;;7.20;78.21
33697;BME280;20031;43.416;23.232;2022-10-22T01:45:59;100726.75;;;7.19;78.15
33697;BME280;20031;43.416;23.232;2022-10-22T01:54:04;100702.81;;;7.26;78.04
33697;BME280;20031;43.416;23.232;2022-10-22T01:56:58;100716.84;;;7.24;77.91
33697;BME280;20031;43.416;23.232;2022-10-22T02:04:39;100684.72;;;7.15;78.31
33697;BME280;20031;43.416;23.232;2022-10-22T02:07:11;100696.13;;;7.24;78.28
33697;BME280;20031;43.416;23.232;2022-10-22T02:09:39;100679.50;;;7.26;78.52
33697;BME280;20031;43.416;23.232;2022-10-22T02:12:07;100682.56;;;7.31;78.11
33697;BME280;20031;43.416;23.232;2022-10-22T02:14:35;100681.63;;;7.32;78.16
33697;BME280;20031;43.416;23.232;2022-10-22T02:17:03;100683.38;;;7.32;78.13
33697;BME280;20031;43.416;23.232;2022-10-22T02:19:37;100688.94;;;7.27;77.61
33697;BME280;20031;43.416;23.232;2022-10-22T02:22:04;100686.59;;;7.24;77.97
33697;BME280;20031;43.416;23.232;2022-10-22T02:24:30;100690.59;;;7.28;78.16
33697;BME280;20031;43.416;23.232;2022-10-22T02:27:37;100692.69;;;7.34;77.79
33697;BME280;20031;43.416;23.232;2022-10-22T02:30:05;100697.03;;;7.34;77.98
33697;BME280;20031;43.416;23.232;2022-10-22T02:33:07;100700.56;;;7.33;77.68
33697;BME280;20031;43.416;23.232;2022-10-22T02:35:35;100684.34;;;7.31;77.74
33697;BME280;20031;43.416;23.232;2022-10-22T02:38:02;100687.63;;;7.33;78.09
33697;BME280;20031;43.416;23.232;2022-10-22T02:40:29;100690.34;;;7.31;77.56
33697;BME280;20031;43.416;23.232;2022-10-22T02:42:55;100681.63;;;7.32;77.84
33697;BME280;20031;43.416;23.232;2022-10-22T02:45:21;100680.78;;;7.32;77.90
33697;BME280;20031;43.416;23.232;2022-10-22T02:47:46;100671.81;;;7.36;78.04
33697;BME280;20031;43.416;23.232;2022-10-22T02:50:12;100666.66;;;7.36;77.96
33697;BME280;20031;43.416;23.232;2022-10-22T02:52:38;100665.47;;;7.40;78.20
33697;BME280;20031;43.416;23.232;2022-10-22T02:55:05;100664.28;;;7.44;78.06
33697;BME280;20031;43.416;23.232;2022-10-22T02:57:31;100669.19;;;7.47;77.81
33697;BME280;20031;43.416;23.232;2022-10-22T02:59:57;100662.94;;;7.49;77.95
33697;BME280;20031;43.416;23.232;2022-10-22T03:02:22;100688.84;;;7.49;77.60
33697;BME280;20031;43.416;23.232;2022-10-22T03:04:48;100684.16;;;7.43;77.43
33697;BME280;20031;43.416;23.232;2022-10-22T03:07:13;100681.81;;;7.40;77.62
33697;BME280;20031;43.416;23.232;2022-10-22T03:09:39;100673.47;;;7.37;77.70
33697;BME280;20031;43.416;23.232;2022-10-22T03:12:04;100680.53;;;7.35;77.76
33697;BME280;20031;43.416;23.232;2022-10-22T03:14:30;100685.28;;;7.30;77.84
33697;BME280;20031;43.416;23.232;2022-10-22T03:16:55;100682.09;;;7.26;77.78
33697;BME280;20031;43.416;23.232;2022-10-22T03:19:21;100691.53;;;7.27;78.09
33697;BME280;20031;43.416;23.232;2022-10-22T03:24:23;100711.19;;;7.30;78.18
33697;BME280;20031;43.416;23.232;2022-10-22T03:26:50;100707.19;;;7.26;78.29
33697;BME280;20031;43.416;23.232;2022-10-22T03:29:18;100703.66;;;7.27;78.44
33697;BME280;20031;43.416;23.232;2022-10-22T03:31:45;100711.06;;;7.31;78.31
33697;BME280;20031;43.416;23.232;2022-10-22T03:34:10;100713.41;;;7.34;78.59
33697;BME280;20031;43.416;23.232;2022-10-22T03:36:38;100706.06;;;7.39;78.72
33697;BME280;20031;43.416;23.232;2022-10-22T03:39:04;100721.28;;;7.44;78.72
33697;BME280;20031;43.416;23.232;2022-10-22T03:41:31;100730.66;;;7.45;78.44
33697;BME280;20031;43.416;23.232;2022-10-22T03:43:56;100730.91;;;7.53;78.94
33697;BME280;20031;43.416;23.232;2022-10-22T03:46:24;100733.13;;;7.57;78.96
33697;BME280;20031;43.416;23.232;2022-10-22T03:48:49;100728.53;;;7.61;78.65
33697;BME280;20031;43.416;23.232;2022-10-22T03:51:15;100724.22;;;7.70;79.12
33697;BME280;20031;43.416;23.232;2022-10-22T03:53:40;100721.75;;;7.69;78.39
33697;BME280;20031;43.416;23.232;2022-10-22T03:56:10;100712.84;;;7.62;78.23
33697;BME280;20031;43.416;23.232;2022-10-22T03:58:37;100717.31;;;7.60;78.37
33697;BME280;20031;43.416;23.232;2022-10-22T04:01:07;100717.00;;;7.54;77.55
33697;BME280;20031;43.416;23.232;2022-10-22T04:03:33;100722.53;;;7.49;78.25
33697;BME280;20031;43.416;23.232;2022-10-22T04:06:07;100720.06;;;7.48;77.46
33697;BME280;20031;43.416;23.232;2022-10-22T04:08:32;100720.44;;;7.43;77.73
33697;BME280;20031;43.416;23.232;2022-10-22T04:10:58;100728.81;;;7.47;77.83
33697;BME280;20031;43.416;23.232;2022-10-22T04:13:23;100724.56;;;7.46;77.81
33697;BME280;20031;43.416;23.232;2022-10-22T04:15:49;100722.91;;;7.45;78.12
33697;BME280;20031;43.416;23.232;2022-10-22T04:18:20;100728.31;;;7.42;77.76
33697;BME280;20031;43.416;23.232;2022-10-22T04:20:46;100710.56;;;7.37;78.13
33697;BME280;20031;43.416;23.232;2022-10-22T04:23:12;100716.34;;;7.41;78.29
33697;BME280;20031;43.416;23.232;2022-10-22T04:25:38;100712.78;;;7.42;77.97
33697;BME280;20031;43.416;23.232;2022-10-22T04:28:07;100713.38;;;7.45;78.51
33697;BME280;20031;43.416;23.232;2022-10-22T04:30:33;100713.25;;;7.47;78.38
33697;BME280;20031;43.416;23.232;2022-10-22T04:32:59;100711.81;;;7.54;78.59
33697;BME280;20031;43.416;23.232;2022-10-22T04:35:24;100708.25;;;7.55;78.17
33697;BME280;20031;43.416;23.232;2022-10-22T04:37:50;100712.25;;;7.59;78.50
33697;BME280;20031;43.416;23.232;2022-10-22T04:40:15;100705.88;;;7.62;78.34
33697;BME280;20031;43.416;23.232;2022-10-22T04:42:41;100698.78;;;7.64;78.65
33697;BME280;20031;43.416;23.232;2022-10-22T04:45:07;100699.94;;;7.71;78.36
33697;BME280;20031;43.416;23.232;2022-10-22T04:47:32;100699.00;;;7.72;78.63
33697;BME280;20031;43.416;23.232;2022-10-22T04:49:58;100691.72;;;7.66;78.38
33697;BME280;20031;43.416;23.232;2022-10-22T04:52:23;100694.31;;;7.66;78.95
33697;BME280;20031;43.416;23.232;2022-10-22T04:54:48;100688.88;;;7.69;79.36
33697;BME280;20031;43.416;23.232;2022-10-22T04:57:14;100684.53;;;7.70;79.79
33697;BME280;20031;43.416;23.232;2022-10-22T04:59:39;100687.91;;;7.70;80.31
33697;BME280;20031;43.416;23.232;2022-10-22T05:02:05;100682.38;;;7.75;80.52
33697;BME280;20031;43.416;23.232;2022-10-22T05:04:30;100680.22;;;7.80;80.46
33697;BME280;20031;43.416;23.232;2022-10-22T05:06:56;100675.03;;;7.80;80.76
33697;BME280;20031;43.416;23.232;2022-10-22T05:09:21;100663.88;;;7.79;80.57
33697;BME280;20031;43.416;23.232;2022-10-22T05:11:49;100667.72;;;7.85;80.58
33697;BME280;20031;43.416;23.232;2022-10-22T05:14:18;100653.66;;;7.87;80.49
33697;BME280;20031;43.416;23.232;2022-10-22T05:16:44;100645.13;;;7.96;81.07
33697;BME280;20031;43.416;23.232;2022-10-22T05:19:29;100647.34;;;8.01;81.10
33697;BME280;20031;43.416;23.232;2022-10-22T05:21:57;100653.53;;;8.09;81.25
33697;BME280;20031;43.416;23.232;2022-10-22T05:24:23;100657.66;;;8.12;81.00
33697;BME280;20031;43.416;23.232;2022-10-22T05:26:50;100659.06;;;8.15;81.18
33697;BME280;20031;43.416;23.232;2022-10-22T05:29:16;100656.91;;;8.20;80.98
33697;BME280;20031;43.416;23.232;2022-10-22T05:31:42;100656.38;;;8.26;81.04
33697;BME280;20031;43.416;23.232;2022-10-22T05:34:07;100653.13;;;8.34;81.26
33697;BME280;20031;43.416;23.232;2022-10-22T05:36:33;100654.25;;;8.41;80.97
33697;BME280;20031;43.416;23.232;2022-10-22T05:38:58;100652.41;;;8.52;80.99
33697;BME280;20031;43.416;23.232;2022-10-22T05:41:25;100654.91;;;8.63;80.83
33697;BME280;20031;43.416;23.232;2022-10-22T05:43:53;100652.34;;;8.72;80.79
33697;BME280;20031;43.416;23.232;2022-10-22T05:46:21;100649.75;;;8.82;80.58
33697;BME280;20031;43.416;23.232;2022-10-22T05:48:51;100652.00;;;8.96;80.56
33697;BME280;20031;43.416;23.232;2022-10-22T05:51:17;100646.53;;;9.17;80.51
33697;BME280;20031;43.416;23.232;2022-10-22T05:53:42;100652.88;;;9.34;79.62
33697;BME280;20031;43.416;23.232;2022-10-22T05:56:11;100645.88;;;9.44;79.19
33697;BME280;20031;43.416;23.232;2022-10-22T05:58:37;100649.03;;;9.57;78.38
33697;BME280;20031;43.416;23.232;2022-10-22T06:01:04;100651.06;;;9.63;77.76
33697;BME280;20031;43.416;23.232;2022-10-22T06:03:30;100649.56;;;9.69;77.48
33697;BME280;20031;43.416;23.232;2022-10-22T06:05:59;100645.88;;;9.72;77.30
33697;BME280;20031;43.416;23.232;2022-10-22T06:08:25;100652.84;;;9.90;76.85
33697;BME280;20031;43.416;23.232;2022-10-22T06:10:50;100657.63;;;10.04;76.04
33697;BME280;20031;43.416;23.232;2022-10-22T06:13:16;100656.34;;;10.18;76.25
33697;BME280;20031;43.416;23.232;2022-10-22T06:15:42;100661.34;;;10.38;75.86
33697;BME280;20031;43.416;23.232;2022-10-22T06:18:07;100651.16;;;10.54;75.43
33697;BME280;20031;43.416;23.232;2022-10-22T06:20:33;100648.69;;;10.79;75.61
33697;BME280;20031;43.416;23.232;2022-10-22T06:22:59;100656.94;;;11.01;74.29
33697;BME280;20031;43.416;23.232;2022-10-22T06:25:24;100649.59;;;11.14;73.88
33697;BME280;20031;43.416;23.232;2022-10-22T06:27:50;100643.72;;;11.29;73.18
33697;BME280;20031;43.416;23.232;2022-10-22T06:30:16;100640.81;;;11.50;72.95
33697;BME280;20031;43.416;23.232;2022-10-22T06:32:42;100625.22;;;11.75;72.79
33697;BME280;20031;43.416;23.232;2022-10-22T06:35:07;100625.09;;;12.02;72.15
33697;BME280;20031;43.416;23.232;2022-10-22T06:37:33;100623.28;;;12.27;70.69
33697;BME280;20031;43.416;23.232;2022-10-22T06:39:58;100626.66;;;12.45;69.49
33697;BME280;20031;43.416;23.232;2022-10-22T06:42:23;100632.63;;;12.71;69.19
33697;BME280;20031;43.416;23.232;2022-10-22T06:44:49;100631.13;;;13.02;67.74
33697;BME280;20031;43.416;23.232;2022-10-22T06:47:14;100631.66;;;13.21;67.49
33697;BME280;20031;43.416;23.232;2022-10-22T06:49:40;100643.16;;;13.52;66.49
33697;BME280;20031;43.416;23.232;2022-10-22T06:52:05;100639.22;;;13.72;65.84
33697;BME280;20031;43.416;23.232;2022-10-22T06:54:30;100636.09;;;13.92;64.43
33697;BME280;20031;43.416;23.232;2022-10-22T06:56:56;100632.16;;;14.20;64.25
33697;BME280;20031;43.416;23.232;2022-10-22T06:59:21;100629.72;;;14.18;63.36
33697;BME280;20031;43.416;23.232;2022-10-22T07:01:47;100628.69;;;14.27;62.84
33697;BME280;20031;43.416;23.232;2022-10-22T07:04:12;100638.03;;;14.29;62.42
33697;BME280;20031;43.416;23.232;2022-10-22T07:06:38;100641.81;;;14.19;61.97
33697;BME280;20031;43.416;23.232;2022-10-22T07:09:03;100646.06;;;14.04;61.90
33697;BME280;20031;43.416;23.232;2022-10-22T07:11:41;100642.34;;;14.07;61.79
33697;BME280;20031;43.416;23.232;2022-10-22T07:14:07;100653.63;;;14.07;62.00
33697;BME280;20031;43.416;23.232;2022-10-22T07:16:32;100654.41;;;13.92;62.13
33697;BME280;20031;43.416;23.232;2022-10-22T07:18:59;100654.78;;;13.81;62.66
33697;BME280;20031;43.416;23.232;2022-10-22T07:21:25;100655.75;;;13.72;62.93
33697;BME280;20031;43.416;23.232;2022-10-22T07:23:50;100655.91;;;13.86;63.27
33697;BME280;20031;43.416;23.232;2022-10-22T07:26:16;100650.34;;;14.05;62.74
33697;BME280;20031;43.416;23.232;2022-10-22T07:28:42;100635.59;;;14.20;62.31
33697;BME280;20031;43.416;23.232;2022-10-22T07:31:10;100632.59;;;14.39;61.96
33697;BME280;20031;43.416;23.232;2022-10-22T07:33:36;100633.53;;;14.54;61.27
33697;BME280;20031;43.416;23.232;2022-10-22T07:36:04;100632.84;;;14.68;60.96
33697;BME280;20031;43.416;23.232;2022-10-22T07:38:30;100645.53;;;14.86;60.27
33697;BME280;20031;43.416;23.232;2022-10-22T07:40:56;100642.34;;;14.99;60.12
33697;BME280;20031;43.416;23.232;2022-10-22T07:43:21;100629.31;;;15.21;59.80
33697;BME280;20031;43.416;23.232;2022-10-22T07:45:47;100626.38;;;15.38;59.04
33697;BME280;20031;43.416;23.232;2022-10-22T07:48:12;100635.97;;;15.54;58.36
33697;BME280;20031;43.416;23.232;2022-10-22T07:50:38;100639.78;;;15.66;57.49
33697;BME280;20031;43.416;23.232;2022-10-22T07:53:03;100628.66;;;15.64;56.91
33697;BME280;20031;43.416;23.232;2022-10-22T07:55:28;100627.69;;;15.79;56.76
33697;BME280;20031;43.416;23.232;2022-10-22T07:57:54;100620.00;;;15.92;56.25
33697;BME280;20031;43.416;23.232;2022-10-22T08:00:20;100613.53;;;16.02;55.69
33697;BME280;20031;43.416;23.232;2022-10-22T08:02:45;100621.81;;;16.28;55.65
33697;BME280;20031;43.416;23.232;2022-10-22T08:05:11;100611.75;;;16.46;54.94
33697;BME280;20031;43.416;23.232;2022-10-22T08:07:38;100610.91;;;16.60;53.86
33697;BME280;20031;43.416;23.232;2022-10-22T08:10:04;100606.19;;;16.70;53.77
33697;BME280;20031;43.416;23.232;2022-10-22T08:12:30;100608.09;;;16.76;53.12
33697;BME280;20031;43.416;23.232;2022-10-22T08:14:55;100601.44;;;16.94;53.04
33697;BME280;20031;43.416;23.232;2022-10-22T08:17:20;100595.09;;;17.09;53.42
33697;BME280;20031;43.416;23.232;2022-10-22T08:19:46;100593.09;;;17.26;52.77
33697;BME280;20031;43.416;23.232;2022-10-22T08:22:11;100588.44;;;17.48;52.08
33697;BME280;20031;43.416;23.232;2022-10-22T08:24:37;100587.09;;;17.80;51.57
33697;BME280;20031;43.416;23.232;2022-10-22T08:27:02;100587.75;;;17.88;50.51
33697;BME280;20031;43.416;23.232;2022-10-22T08:29:28;100576.25;;;17.95;50.07
33697;BME280;20031;43.416;23.232;2022-10-22T08:31:53;100581.31;;;17.97;49.88
33697;BME280;20031;43.416;23.232;2022-10-22T08:34:19;100582.53;;;17.94;49.41
33697;BME280;20031;43.416;23.232;2022-10-22T08:36:45;100594.13;;;18.00;48.97
33697;BME280;20031;43.416;23.232;2022-10-22T08:39:10;100595.19;;;18.05;49.24
33697;BME280;20031;43.416;23.232;2022-10-22T08:45:34;100591.53;;;18.06;48.43
33697;BME280;20031;43.416;23.232;2022-10-22T08:48:23;100570.63;;;18.32;48.50
33697;BME280;20031;43.416;23.232;2022-10-22T08:50:54;100560.59;;;18.55;47.45
33697;BME280;20031;43.416;23.232;2022-10-22T08:53:35;100553.78;;;18.80;46.64
33697;BME280;20031;43.416;23.232;2022-10-22T08:56:04;100550.13;;;18.81;45.90
33697;BME280;20031;43.416;23.232;2022-10-22T08:58:46;100544.66;;;18.89;45.62
33697;BME280;20031;43.416;23.232;2022-10-22T09:01:18;100541.28;;;19.07;44.77
33697;BME280;20031;43.416;23.232;2022-10-22T09:06:31;100538.88;;;19.32;43.60
33697;BME280;20031;43.416;23.232;2022-10-22T09:08:58;100536.22;;;19.32;43.14
33697;BME280;20031;43.416;23.232;2022-10-22T09:11:34;100543.38;;;19.38;43.00
33697;BME280;20031;43.416;23.232;2022-10-22T09:14:01;100550.06;;;19.53;42.85
33697;BME280;20031;43.416;23.232;2022-10-22T09:21:58;100542.94;;;19.79;42.40
33697;BME280;20031;43.416;23.232;2022-10-22T09:24:41;100535.22;;;19.91;41.66
33697;BME280;20031;43.416;23.232;2022-10-22T09:27:15;100542.94;;;19.98;41.20
33697;BME280;20031;43.416;23.232;2022-10-22T09:29:42;100545.34;;;19.87;41.20
33697;BME280;20031;43.416;23.232;2022-10-22T09:32:07;100538.44;;;20.05;41.27
33697;BME280;20031;43.416;23.232;2022-10-22T09:34:33;100526.41;;;20.16;40.81
33697;BME280;20031;43.416;23.232;2022-10-22T09:37:01;100531.47;;;20.24;41.06
33697;BME280;20031;43.416;23.232;2022-10-22T09:39:31;100533.50;;;20.28;41.43
33697;BME280;20031;43.416;23.232;2022-10-22T09:41:57;100522.88;;;20.35;41.41
33697;BME280;20031;43.416;23.232;2022-10-22T09:44:23;100510.81;;;20.45;40.95
33697;BME280;20031;43.416;23.232;2022-10-22T09:46:48;100513.75;;;20.81;40.78
33697;BME280;20031;43.416;23.232;2022-10-22T09:49:20;100512.72;;;21.12;40.43
33697;BME280;20031;43.416;23.232;2022-10-22T09:51:58;100509.19;;;21.49;40.24
33697;BME280;20031;43.416;23.232;2022-10-22T09:59:32;100505.56;;;21.86;39.06
33697;BME280;20031;43.416;23.232;2022-10-22T10:02:19;100492.00;;;21.27;40.15
33697;BME280;20031;43.416;23.232;2022-10-22T10:07:27;100499.72;;;20.74;41.06
33697;BME280;20031;43.416;23.232;2022-10-22T10:09:54;100507.06;;;20.72;41.73
33697;BME280;20031;43.416;23.232;2022-10-22T10:13:07;100494.63;;;20.66;41.43
33697;BME280;20031;43.416;23.232;2022-10-22T10:15:35;100482.81;;;20.31;42.20
33697;BME280;20031;43.416;23.232;2022-10-22T10:23:41;100496.94;;;20.93;41.69
33697;BME280;20031;43.416;23.232;2022-10-22T10:28:49;100495.06;;;21.24;41.29
33697;BME280;20031;43.416;23.232;2022-10-22T10:36:20;100488.97;;;21.72;41.09
33697;BME280;20031;43.416;23.232;2022-10-22T10:38:59;100467.00;;;21.65;40.37
33697;BME280;20031;43.416;23.232;2022-10-22T10:41:35;100472.16;;;21.78;40.64
33697;BME280;20031;43.416;23.232;2022-10-22T10:44:49;100468.50;;;21.79;40.02
33697;BME280;20031;43.416;23.232;2022-10-22T10:53:35;100452.88;;;21.71;40.26
33697;BME280;20031;43.416;23.232;2022-10-22T11:06:45;100429.97;;;21.77;39.54
33697;BME280;20031;43.416;23.232;2022-10-22T11:11:56;100432.69;;;21.70;39.37
33697;BME280;20031;43.416;23.232;2022-10-22T11:17:14;100427.53;;;21.57;40.16
33697;BME280;20031;43.416;23.232;2022-10-22T11:20:05;100424.94;;;21.51;39.80
33697;BME280;20031;43.416;23.232;2022-10-22T11:22:54;100426.41;;;21.47;40.23
33697;BME280;20031;43.416;23.232;2022-10-22T11:25:24;100425.69;;;21.58;40.01
33697;BME280;20031;43.416;23.232;2022-10-22T11:28:04;100414.84;;;21.59;39.89
33697;BME280;20031;43.416;23.232;2022-10-22T11:30:34;100414.94;;;21.53;39.11
33697;BME280;20031;43.416;23.232;2022-10-22T11:33:04;100412.53;;;21.45;39.85
33697;BME280;20031;43.416;23.232;2022-10-22T11:35:37;100418.00;;;21.26;40.25
33697;BME280;20031;43.416;23.232;2022-10-22T11:38:05;100411.47;;;21.28;40.23
33697;BME280;20031;43.416;23.232;2022-10-22T11:40:34;100407.63;;;21.49;40.38
33697;BME280;20031;43.416;23.232;2022-10-22T11:43:07;100407.91;;;21.58;40.63
33697;BME280;20031;43.416;23.232;2022-10-22T11:45:37;100405.47;;;21.39;40.18
33697;BME280;20031;43.416;23.232;2022-10-22T12:01:28;100379.63;;;21.35;39.83
33697;BME280;20031;43.416;23.232;2022-10-22T12:04:20;100374.06;;;21.18;40.35
33697;BME280;20031;43.416;23.232;2022-10-22T12:06:52;100361.25;;;21.15;40.33
33697;BME280;20031;43.416;23.232;2022-10-22T12:09:18;100364.34;;;21.12;40.50
33697;BME280;20031;43.416;23.232;2022-10-22T12:11:46;100368.00;;;21.11;40.29
33697;BME280;20031;43.416;23.232;2022-10-22T12:14:22;100359.47;;;21.09;40.45
33697;BME280;20031;43.416;23.232;2022-10-22T12:21:52;100346.78;;;20.94;40.89
33697;BME280;20031;43.416;23.232;2022-10-22T12:24:21;100347.06;;;20.86;40.93
33697;BME280;20031;43.416;23.232;2022-10-22T12:26:47;100339.81;;;20.75;40.82
33697;BME280;20031;43.416;23.232;2022-10-22T12:29:17;100336.59;;;20.73;40.97
33697;BME280;20031;43.416;23.232;2022-10-22T12:31:45;100328.06;;;20.71;41.29
33697;BME280;20031;43.416;23.232;2022-10-22T12:34:21;100330.28;;;20.67;41.19
33697;BME280;20031;43.416;23.232;2022-10-22T12:36:48;100317.13;;;20.61;41.20
33697;BME280;20031;43.416;23.232;2022-10-22T12:39:20;100319.00;;;20.54;40.89
33697;BME280;20031;43.416;23.232;2022-10-22T12:41:46;100332.22;;;20.54;41.49
33697;BME280;20031;43.416;23.232;2022-10-22T12:44:15;100318.38;;;20.52;41.33
33697;BME280;20031;43.416;23.232;2022-10-22T12:46:42;100329.81;;;20.52;41.44
33697;BME280;20031;43.416;23.232;2022-10-22T12:49:38;100321.47;;;20.49;41.36
33697;BME280;20031;43.416;23.232;2022-10-22T12:52:06;100315.16;;;20.50;40.93
33697;BME280;20031;43.416;23.232;2022-10-22T12:54:35;100319.91;;;20.42;40.90
33697;BME280;20031;43.416;23.232;2022-10-22T12:57:02;100314.38;;;20.43;40.90
33697;BME280;20031;43.416;23.232;2022-10-22T12:59:32;100310.31;;;20.41;41.76
33697;BME280;20031;43.416;23.232;2022-10-22T13:01:59;100308.72;;;20.40;41.11
33697;BME280;20031;43.416;23.232;2022-10-22T13:09:48;100308.34;;;20.36;41.66
33697;BME280;20031;43.416;23.232;2022-10-22T13:12:26;100303.47;;;20.33;41.37
33697;BME280;20031;43.416;23.232;2022-10-22T13:14:52;100294.94;;;20.31;41.93
33697;BME280;20031;43.416;23.232;2022-10-22T13:17:35;100293.69;;;20.34;41.71
33697;BME280;20031;43.416;23.232;2022-10-22T13:20:03;100300.56;;;20.41;41.58
33697;BME280;20031;43.416;23.232;2022-10-22T13:22:35;100299.72;;;20.47;41.73
33697;BME280;20031;43.416;23.232;2022-10-22T13:25:19;100282.16;;;20.52;42.20
33697;BME280;20031;43.416;23.232;2022-10-22T13:27:47;100280.19;;;20.72;41.85
33697;BME280;20031;43.416;23.232;2022-10-22T13:32:52;100278.69;;;21.01;41.70
33697;BME280;20031;43.416;23.232;2022-10-22T13:35:22;100274.75;;;21.03;41.96
33697;BME280;20031;43.416;23.232;2022-10-22T13:37:48;100269.84;;;21.06;41.85
33697;BME280;20031;43.416;23.232;2022-10-22T13:40:14;100273.16;;;21.20;41.47
33697;BME280;20031;43.416;23.232;2022-10-22T13:42:39;100275.59;;;21.39;41.40
33697;BME280;20031;43.416;23.232;2022-10-22T13:45:05;100272.94;;;21.57;40.87
33697;BME280;20031;43.416;23.232;2022-10-22T13:47:31;100269.03;;;21.59;40.91
33697;BME280;20031;43.416;23.232;2022-10-22T13:49:59;100272.84;;;21.46;41.28
33697;BME280;20031;43.416;23.232;2022-10-22T13:52:41;100276.81;;;21.37;41.64
33697;BME280;20031;43.416;23.232;2022-10-22T13:57:45;100272.94;;;21.57;41.82
33697;BME280;20031;43.416;23.232;2022-10-22T14:00:18;100269.41;;;21.63;41.49
33697;BME280;20031;43.416;23.232;2022-10-22T14:02:46;100270.88;;;21.59;41.13
33697;BME280;20031;43.416;23.232;2022-10-22T14:05:14;100268.13;;;21.65;41.31
33697;BME280;20031;43.416;23.232;2022-10-22T14:07:40;100277.06;;;21.82;41.52
33697;BME280;20031;43.416;23.232;2022-10-22T14:10:16;100272.88;;;21.93;40.39
33697;BME280;20031;43.416;23.232;2022-10-22T14:12:42;100276.72;;;21.79;40.37
33697;BME280;20031;43.416;23.232;2022-10-22T14:15:13;100275.28;;;21.65;40.98
33697;BME280;20031;43.416;23.232;2022-10-22T14:17:40;100272.66;;;21.47;40.98
33697;BME280;20031;43.416;23.232;2022-10-22T14:20:13;100285.50;;;21.26;41.01
33697;BME280;20031;43.416;23.232;2022-10-22T14:22:40;100287.94;;;21.09;41.98
33697;BME280;20031;43.416;23.232;2022-10-22T14:25:05;100294.41;;;20.96;41.84
33697;BME280;20031;43.416;23.232;2022-10-22T14:27:31;100299.25;;;20.81;42.05
33697;BME280;20031;43.416;23.232;2022-10-22T14:29:56;100297.19;;;20.83;42.24
33697;BME280;20031;43.416;23.232;2022-10-22T14:32:21;100295.28;;;20.90;42.28
33697;BME280;20031;43.416;23.232;2022-10-22T14:34:47;100302.63;;;20.88;42.52
33697;BME280;20031;43.416;23.232;2022-10-22T14:37:18;100294.09;;;20.86;42.79
33697;BME280;20031;43.416;23.232;2022-10-22T14:39:44;100299.66;;;20.78;42.92
33697;BME280;20031;43.416;23.232;2022-10-22T14:42:17;100295.31;;;20.59;43.51
33697;BME280;20031;43.416;23.232;2022-10-22T14:44:44;100293.59;;;20.47;43.50